Time;durP1;ratioP1;P1;durP2;ratioP2;P2;SDS_P1;SDS_P2;PMS_P1;PMS_P2;Temp;Humidity;BMP_temperature;BMP_pressure;BME280_temperature;BME280_humidity;BME280_pressure;Samples;Min_cycle;Max_cycle;Signal;HPM_P1;HPM_P2
2022/06/28 00:01:06;;;;;;;12.87;11.83;;;;;;;16.83;91.79;100851.97;5075485;28;20306;-78
2022/06/28 00:03:32;;;;;;;11.67;10.73;;;;;;;16.89;91.05;100883.38;5075551;28;20808;-77
2022/06/28 00:05:59;;;;;;;11.20;10.40;;;;;;;16.83;90.68;100886.25;5075476;28;20206;-78
2022/06/28 00:08:27;;;;;;;11.30;10.50;;;;;;;16.83;90.39;100910.84;5072399;28;20206;-77
2022/06/28 00:10:54;;;;;;;9.70;9.10;;;;;;;16.96;89.87;100936.75;5073411;28;20225;-78
2022/06/28 00:13:20;;;;;;;9.17;8.57;;;;;;;16.92;88.86;100964.16;5069446;28;20687;-77
2022/06/28 00:18:31;;;;;;;8.47;7.97;;;;;;;17.02;88.27;100997.19;5075809;28;20206;-79
2022/06/28 00:20:57;;;;;;;8.43;7.83;;;;;;;17.07;87.57;101021.63;5075943;28;20228;-79
2022/06/28 00:23:24;;;;;;;8.43;7.90;;;;;;;17.17;87.28;101033.53;5076287;28;20248;-79
2022/06/28 00:25:51;;;;;;;8.63;7.83;;;;;;;16.87;88.14;101015.28;5075215;28;20206;-78
2022/06/28 00:28:18;;;;;;;9.10;8.40;;;;;;;17.03;87.69;101026.13;5075548;28;20219;-77
2022/06/28 00:30:44;;;;;;;8.90;8.30;;;;;;;16.96;87.34;101037.81;5076176;28;20235;-78
2022/06/28 00:33:11;;;;;;;8.63;7.90;;;;;;;16.88;87.56;101037.22;5076412;28;20284;-78
2022/06/28 00:35:37;;;;;;;9.23;8.30;;;;;;;16.99;87.82;101032.44;5075649;28;20202;-78
2022/06/28 00:38:03;;;;;;;8.80;8.00;;;;;;;17.00;87.54;101031.50;5076165;28;20209;-78
2022/06/28 00:40:31;;;;;;;9.30;8.40;;;;;;;17.03;87.27;101044.59;5076471;28;20228;-79
2022/06/28 00:42:59;;;;;;;8.50;8.00;;;;;;;17.11;86.81;101051.38;5069952;28;20206;-78
2022/06/28 00:45:26;;;;;;;10.23;7.40;;;;;;;17.02;86.79;101060.47;5074838;28;20237;-79
2022/06/28 00:47:54;;;;;;;7.50;6.90;;;;;;;17.01;87.02;101059.63;5075326;28;20202;-79
2022/06/28 00:50:20;;;;;;;8.37;7.77;;;;;;;17.10;86.70;101068.13;5075965;28;20359;-77
2022/06/28 00:52:59;;;;;;;7.77;7.10;;;;;;;17.16;86.56;101075.81;5076230;28;20205;-79
2022/06/28 00:55:25;;;;;;;8.10;7.50;;;;;;;16.90;86.96;101071.47;5076372;28;20636;-79
2022/06/28 00:57:52;;;;;;;8.13;7.63;;;;;;;16.92;87.11;101062.56;5075178;28;20205;-78
2022/06/28 01:00:20;;;;;;;7.83;7.33;;;;;;;16.87;87.72;101040.81;5075655;28;20271;-79
2022/06/28 01:02:46;;;;;;;8.30;7.60;;;;;;;16.85;87.90;101021.53;5074320;28;20227;-78
2022/06/28 01:05:13;;;;;;;7.70;7.20;;;;;;;16.75;87.98;101030.63;5075962;28;20255;-79
2022/06/28 01:07:40;;;;;;;7.33;6.73;;;;;;;16.82;88.17;101019.84;5075503;28;20217;-79
2022/06/28 01:10:08;;;;;;;7.77;7.27;;;;;;;16.70;88.47;101022.91;5075170;28;20224;-78
2022/06/28 01:12:34;;;;;;;8.43;7.83;;;;;;;16.50;89.12;100997.22;5069732;28;20238;-78
2022/06/28 01:15:01;;;;;;;7.93;7.37;;;;;;;16.39;89.21;100992.34;5075287;28;20202;-78
2022/06/28 01:17:28;;;;;;;8.37;7.67;;;;;;;16.34;89.47;100996.91;5075820;28;20240;-78
2022/06/28 01:19:55;;;;;;;8.47;7.80;;;;;;;16.26;89.22;101002.41;5078926;28;20706;-78
2022/06/28 01:22:22;;;;;;;9.33;8.40;;;;;;;16.33;89.45;100984.63;5078477;28;20222;-79
2022/06/28 01:24:50;;;;;;;8.10;7.43;;;;;;;16.20;89.30;101000.00;5078883;28;20216;-78
2022/06/28 01:27:17;;;;;;;8.83;8.13;;;;;;;16.16;90.23;100976.44;5078735;28;20826;-79
2022/06/28 01:29:43;;;;;;;8.00;7.50;;;;;;;16.04;90.42;100975.09;5077881;28;20258;-78
2022/06/28 01:32:10;;;;;;;7.70;7.20;;;;;;;16.18;89.85;100979.91;5078552;28;20260;-79
2022/06/28 01:34:36;;;;;;;7.57;7.07;;;;;;;16.15;88.75;101008.97;5079286;28;20202;-79
2022/06/28 01:37:03;;;;;;;7.50;7.00;;;;;;;16.21;88.31;101016.66;5078367;28;20564;-78
2022/06/28 01:39:29;;;;;;;8.13;7.43;;;;;;;16.16;88.16;101035.25;5078328;28;20209;-78
2022/06/28 01:41:57;;;;;;;7.53;6.93;;;;;;;16.17;87.54;101054.53;5073407;28;20234;-78
2022/06/28 01:44:23;;;;;;;7.10;6.70;;;;;;;16.03;87.00;101078.69;5077136;28;20201;-78
2022/06/28 01:46:50;;;;;;;7.07;6.60;;;;;;;16.01;87.56;101069.97;5077667;28;20233;-78
2022/06/28 01:49:16;;;;;;;7.30;6.80;;;;;;;15.98;87.20;101075.34;5078522;28;20213;-78
2022/06/28 01:51:42;;;;;;;7.00;6.50;;;;;;;15.63;88.76;101057.03;5078975;28;20247;-79
2022/06/28 01:54:09;;;;;;;8.33;7.57;;;;;;;15.37;90.23;100999.09;5078006;28;20205;-78
2022/06/28 01:56:36;;;;;;;8.20;7.50;;;;;;;15.45;90.40;100979.53;5077920;28;20263;-78
2022/06/28 01:59:04;;;;;;;7.67;6.97;;;;;;;15.51;90.13;100970.59;5078215;28;20299;-79
2022/06/28 02:01:30;;;;;;;8.07;7.47;;;;;;;15.37;90.23;100976.25;5077310;28;20232;-79
2022/06/28 02:03:56;;;;;;;7.87;7.37;;;;;;;15.31;90.51;100965.94;5078079;28;20203;-79
2022/06/28 02:06:23;;;;;;;8.00;7.40;;;;;;;15.23;90.69;100968.78;5078496;28;20205;-79
2022/06/28 02:08:49;;;;;;;11.07;6.93;;;;;;;15.07;91.08;100957.00;5077693;28;20211;-79
2022/06/28 02:11:16;;;;;;;6.90;6.37;;;;;;;15.15;90.47;100964.69;5078169;28;20220;-78
2022/06/28 02:13:42;;;;;;;7.33;6.83;;;;;;;15.13;90.04;100974.38;5068933;28;20675;-77
2022/06/28 02:16:10;;;;;;;6.70;6.20;;;;;;;15.16;90.22;100979.53;5076868;28;20204;-78
2022/06/28 02:18:36;;;;;;;7.67;7.07;;;;;;;15.23;89.35;101002.13;5077535;28;20200;-77
2022/06/28 02:21:02;;;;;;;7.10;6.60;;;;;;;15.06;88.45;101023.63;5078071;28;20253;-78
2022/06/28 02:23:29;;;;;;;6.97;6.47;;;;;;;15.13;88.37;101034.84;5076992;28;20221;-79
2022/06/28 02:25:56;;;;;;;6.60;6.03;;;;;;;14.96;88.18;101048.47;5077690;28;20281;-78
2022/06/28 02:28:23;;;;;;;6.63;6.03;;;;;;;15.07;88.45;101044.63;5076667;28;20214;-78
2022/06/28 02:30:49;;;;;;;6.13;5.80;;;;;;;15.00;87.78;101050.09;5077646;28;20224;-79
2022/06/28 02:33:17;;;;;;;6.73;6.23;;;;;;;15.07;87.47;101063.03;5077767;28;20204;-79
2022/06/28 02:41:11;;;;;;;7.50;7.00;;;;;;;14.77;88.07;101050.75;5078038;28;20231;-79
2022/06/28 02:43:38;;;;;;;7.13;6.60;;;;;;;14.62;88.88;101031.81;5071364;28;20733;-78
2022/06/28 02:46:04;;;;;;;7.13;6.50;;;;;;;14.65;89.08;101023.03;5077454;28;20212;-78
2022/06/28 02:48:32;;;;;;;6.80;6.23;;;;;;;14.81;88.15;101028.72;5077326;28;20209;-78
2022/06/28 02:50:59;;;;;;;6.13;5.33;;;;;;;15.08;87.72;101046.38;5080359;28;20776;-79
2022/06/28 02:53:25;;;;;;;5.70;5.30;;;;;;;15.13;86.25;101093.56;5079351;28;20624;-78
2022/06/28 02:55:51;;;;;;;6.03;5.53;;;;;;;15.24;85.93;101116.94;5079302;28;20751;-78
2022/06/28 02:58:18;;;;;;;5.30;4.90;;;;;;;15.42;85.16;101131.34;5077860;28;20779;-79
2022/06/28 03:00:44;;;;;;;5.40;4.90;;;;;;;15.53;84.81;101160.84;5077860;28;20227;-79
2022/06/28 03:03:11;;;;;;;5.00;4.60;;;;;;;15.59;84.49;101175.59;5078161;28;20609;-79
2022/06/28 03:05:39;;;;;;;4.70;4.33;;;;;;;15.68;83.97;101180.63;5078281;28;20220;-79
2022/06/28 03:08:05;;;;;;;7.57;4.53;;;;;;;15.71;83.35;101198.09;5077428;28;20266;-78
2022/06/28 03:10:32;;;;;;;4.20;3.90;;;;;;;15.65;82.84;101218.41;5077440;28;20707;-79
2022/06/28 03:12:58;;;;;;;4.50;4.13;;;;;;;15.38;83.99;101204.25;5071696;28;20223;-79
2022/06/28 03:15:25;;;;;;;5.60;5.20;;;;;;;14.97;85.71;101164.09;5076078;28;20201;-79
2022/06/28 03:17:51;;;;;;;6.87;6.37;;;;;;;14.63;88.04;101083.47;5076337;28;20206;-78
2022/06/28 03:20:18;;;;;;;8.10;7.50;;;;;;;14.45;89.95;101019.09;5076272;28;20227;-79
2022/06/28 03:22:46;;;;;;;8.50;7.90;;;;;;;14.41;90.35;101000.81;5076678;28;20657;-79
2022/06/28 03:25:12;;;;;;;8.87;8.10;;;;;;;14.39;90.86;100989.50;5076536;28;20204;-78
2022/06/28 03:27:38;;;;;;;8.67;7.97;;;;;;;14.41;90.20;100993.81;5076159;28;20741;-79
2022/06/28 03:30:06;;;;;;;9.40;8.70;;;;;;;14.42;90.30;100999.94;5076353;28;20280;-79
2022/06/28 03:32:33;;;;;;;9.50;8.90;;;;;;;14.30;90.84;101001.97;5076366;28;20588;-78
2022/06/28 03:34:59;;;;;;;9.30;8.70;;;;;;;14.23;90.78;100994.28;5076373;28;20212;-79
2022/06/28 03:37:26;;;;;;;9.50;8.70;;;;;;;14.32;90.38;101004.56;5076080;28;20277;-78
2022/06/28 03:39:54;;;;;;;10.37;9.67;;;;;;;14.26;90.58;101004.72;5076127;28;20232;-78
2022/06/28 03:42:20;;;;;;;10.43;9.43;;;;;;;14.27;90.96;101002.06;5070994;28;20225;-78
2022/06/28 03:44:46;;;;;;;12.20;10.10;;;;;;;14.24;90.99;101012.63;5076465;28;20273;-78
2022/06/28 03:47:13;;;;;;;10.50;9.53;;;;;;;14.37;90.26;101023.69;5076878;28;20246;-79
2022/06/28 03:49:39;;;;;;;10.50;9.60;;;;;;;14.35;90.60;101024.63;5076150;28;20223;-79
2022/06/28 03:52:07;;;;;;;10.20;9.50;;;;;;;14.36;90.51;101037.72;5077133;28;20208;-79
2022/06/28 03:54:33;;;;;;;10.10;9.47;;;;;;;14.34;90.56;101041.28;5077122;28;20206;-78
2022/06/28 03:57:01;;;;;;;11.20;10.23;;;;;;;14.15;91.37;101020.72;5076472;28;20207;-79
2022/06/28 03:59:28;;;;;;;11.17;10.40;;;;;;;14.17;91.58;101011.06;5076543;28;20215;-79
2022/06/28 04:01:54;;;;;;;11.20;10.37;;;;;;;14.02;92.21;100993.91;5076335;28;20231;-79
2022/06/28 04:04:21;;;;;;;10.77;9.97;;;;;;;14.13;92.42;100988.38;5076714;28;20231;-79
2022/06/28 04:06:47;;;;;;;10.93;10.27;;;;;;;14.32;91.61;101004.56;5076936;28;20212;-79
2022/06/28 04:09:14;;;;;;;12.17;10.13;;;;;;;14.30;91.36;101015.09;5076717;28;20583;-78
2022/06/28 04:11:40;;;;;;;10.53;9.83;;;;;;;14.45;90.50;101034.88;5074097;28;20715;-79
2022/06/28 04:14:11;;;;;;;11.40;10.47;;;;;;;14.62;89.62;101063.34;5073890;28;20207;-79
2022/06/28 04:16:37;;;;;;;10.93;10.10;;;;;;;14.70;89.48;101081.56;5076757;28;20206;-78
2022/06/28 04:19:03;;;;;;;11.10;10.27;;;;;;;14.84;88.55;101108.34;5077258;28;20554;-79
2022/06/28 04:21:30;;;;;;;10.37;9.53;;;;;;;14.87;87.72;101138.97;5077412;28;20954;-79
2022/06/28 04:23:56;;;;;;;10.40;9.70;;;;;;;15.14;87.09;101150.50;5076376;28;20225;-79
2022/06/28 04:26:23;;;;;;;9.23;8.63;;;;;;;15.12;87.27;101168.09;5076321;28;20232;-79
2022/06/28 04:28:49;;;;;;;9.70;9.00;;;;;;;14.88;88.03;101159.94;5076311;28;20238;-79
2022/06/28 04:31:17;;;;;;;11.00;10.07;;;;;;;14.80;89.04;101119.81;5076284;28;20288;-79
2022/06/28 04:33:44;;;;;;;10.80;10.07;;;;;;;14.65;89.86;101086.94;5076263;28;20266;-79
2022/06/28 04:36:11;;;;;;;11.33;10.50;;;;;;;14.64;90.19;101077.31;5076468;28;20204;-79
2022/06/28 04:38:37;;;;;;;11.33;10.53;;;;;;;14.48;91.27;101060.19;5076778;28;20744;-78
2022/06/28 04:41:03;;;;;;;12.90;11.90;;;;;;;14.63;91.23;101041.44;5076786;28;20236;-79
2022/06/28 04:43:30;;;;;;;12.40;11.30;;;;;;;14.74;90.55;101064.81;5069774;28;20218;-79
2022/06/28 04:45:56;;;;;;;9.77;9.07;;;;;;;14.70;90.70;101061.38;5075787;28;20207;-79
2022/06/28 04:48:24;;;;;;;9.70;9.00;;;;;;;14.88;90.40;101067.06;5076612;28;20209;-78
2022/06/28 04:50:50;;;;;;;11.97;10.90;;;;;;;14.73;90.30;101080.59;5076827;28;20235;-79
2022/06/28 04:53:17;;;;;;;11.10;10.27;;;;;;;14.88;90.02;101077.56;5080447;28;20204;-79
2022/06/28 04:55:43;;;;;;;11.57;10.70;;;;;;;15.02;89.45;101096.47;5080155;28;20216;-79
2022/06/28 04:58:10;;;;;;;11.23;10.40;;;;;;;15.17;88.90;101113.63;5079582;28;20285;-79
2022/06/28 05:00:36;;;;;;;12.60;11.70;;;;;;;15.21;88.96;101115.25;5080458;28;20224;-79
2022/06/28 05:03:02;;;;;;;12.77;11.87;;;;;;;15.29;88.87;101123.78;5080668;28;20236;-79
2022/06/28 05:05:30;;;;;;;13.57;12.57;;;;;;;15.36;88.52;101140.28;5080105;28;20674;-79
2022/06/28 05:07:56;;;;;;;12.77;11.77;;;;;;;15.39;89.14;101137.56;5080095;28;20607;-79
2022/06/28 05:10:23;;;;;;;13.27;12.27;;;;;;;15.16;89.47;101135.53;5080529;28;20227;-79
2022/06/28 05:12:49;;;;;;;14.30;13.07;;;;;;;15.21;89.20;101122.28;5074950;28;20223;-79
2022/06/28 05:15:16;;;;;;;14.57;13.23;;;;;;;15.36;88.73;101136.78;5080736;28;20564;-79
2022/06/28 05:17:42;;;;;;;13.97;12.97;;;;;;;15.42;88.27;101149.75;5080887;28;20250;-79
2022/06/28 05:20:10;;;;;;;13.37;12.23;;;;;;;15.46;87.76;101161.91;5079402;28;20722;-79
2022/06/28 05:22:37;;;;;;;13.70;12.73;;;;;;;15.46;88.09;101156.66;5079889;28;20225;-79
2022/06/28 05:25:04;;;;;;;13.97;12.93;;;;;;;15.46;87.86;101162.81;5079464;28;20263;-79
2022/06/28 05:27:31;;;;;;;14.00;13.10;;;;;;;15.40;87.44;101183.13;5079096;28;20208;-78
2022/06/28 05:29:57;;;;;;;14.30;13.17;;;;;;;15.25;87.81;101173.91;5079197;28;20224;-79
2022/06/28 05:32:23;;;;;;;13.77;12.77;;;;;;;15.44;88.04;101153.19;5079639;28;20205;-79
2022/06/28 05:34:50;;;;;;;14.57;13.47;;;;;;;15.34;87.48;101176.28;5079920;28;20254;-79
2022/06/28 05:37:16;;;;;;;15.50;14.30;;;;;;;15.34;87.49;101173.66;5079461;28;20208;-79
2022/06/28 05:39:44;;;;;;;14.77;13.70;;;;;;;15.49;86.86;101170.59;5079304;28;20229;-79
2022/06/28 05:42:10;;;;;;;15.30;14.10;;;;;;;15.39;87.23;101166.50;5073970;28;20210;-77
2022/06/28 05:44:37;;;;;;;14.23;13.10;;;;;;;15.40;87.00;101169.97;5081556;28;20197;-78
2022/06/28 05:47:03;;;;;;;14.37;13.27;;;;;;;15.44;87.14;101184.78;5080459;28;20266;-80
2022/06/28 05:49:30;;;;;;;13.90;12.87;;;;;;;15.62;87.08;101180.81;5071308;28;20200;-81
2022/06/28 05:51:56;;;;;;;14.07;13.00;;;;;;;15.62;85.76;101220.28;5068073;28;20219;-80
2022/06/28 05:54:22;;;;;;;13.97;12.77;;;;;;;15.65;85.85;101204.38;5071010;28;20612;-79
2022/06/28 05:56:50;;;;;;;13.73;12.73;;;;;;;15.65;85.05;101241.22;5070375;28;20193;-80
2022/06/28 05:59:16;;;;;;;13.57;12.57;;;;;;;15.56;84.61;101252.00;5067204;28;20209;-80
2022/06/28 06:01:43;;;;;;;13.33;12.37;;;;;;;15.56;85.17;101241.47;5070052;28;20606;-79
2022/06/28 06:04:09;;;;;;;12.70;11.57;;;;;;;15.58;83.72;101256.34;5067886;28;20272;-80
2022/06/28 06:06:36;;;;;;;12.07;11.17;;;;;;;15.51;84.11;101267.06;5067686;28;20197;-80
2022/06/28 06:09:02;;;;;;;12.73;11.67;;;;;;;15.55;83.96;101266.94;5069676;28;20196;-80
2022/06/28 06:11:28;;;;;;;12.47;11.47;;;;;;;15.67;84.12;101269.22;5067495;28;20221;-80
2022/06/28 06:13:56;;;;;;;11.43;10.53;;;;;;;15.79;83.84;101281.22;5072507;28;20222;-79
2022/06/28 06:16:23;;;;;;;11.20;10.40;;;;;;;15.87;82.49;101321.38;5068167;28;20568;-78
2022/06/28 06:18:49;;;;;;;11.20;10.40;;;;;;;15.95;83.01;101328.22;5065529;28;20202;-78
2022/06/28 06:21:15;;;;;;;9.93;9.33;;;;;;;16.09;82.51;101318.16;5065843;28;20227;-77
2022/06/28 06:23:42;;;;;;;10.30;9.50;;;;;;;15.99;80.95;101374.63;5063488;28;20265;-78
2022/06/28 06:26:08;;;;;;;10.37;9.20;;;;;;;16.11;80.54;101387.47;5065427;28;20215;-78
2022/06/28 06:28:35;;;;;;;10.47;9.60;;;;;;;16.23;81.18;101376.63;5065331;28;20255;-77
2022/06/28 06:31:03;;;;;;;10.27;9.23;;;;;;;16.30;80.29;101403.66;5063198;28;20219;-78
2022/06/28 06:33:29;;;;;;;8.90;8.20;;;;;;;16.32;79.06;101449.25;5064297;28;20247;-77
2022/06/28 06:35:56;;;;;;;8.90;8.27;;;;;;;16.43;79.02;101452.50;5065175;28;20205;-78
2022/06/28 06:38:22;;;;;;;8.90;8.23;;;;;;;16.49;78.33;101464.63;5063585;28;20202;-78
2022/06/28 06:40:48;;;;;;;8.63;7.87;;;;;;;16.45;78.33;101481.41;5066253;28;20216;-78
2022/06/28 06:43:15;;;;;;;10.23;7.63;;;;;;;16.30;78.16;101487.09;5065899;28;20291;-77
2022/06/28 06:45:41;;;;;;;8.70;7.97;;;;;;;16.41;78.40;101478.03;5063691;28;20240;-77
2022/06/28 06:48:09;;;;;;;7.97;7.37;;;;;;;16.40;77.17;101501.78;5063553;28;20577;-77
2022/06/28 06:50:36;;;;;;;6.77;6.27;;;;;;;16.60;77.10;101511.78;5064148;28;20282;-77
2022/06/28 06:53:03;;;;;;;6.70;6.03;;;;;;;16.78;76.70;101520.97;5061030;28;20201;-77
2022/06/28 06:55:29;;;;;;;6.33;5.83;;;;;;;16.65;74.58;101565.25;5062655;28;20201;-76
2022/06/28 06:57:56;;;;;;;6.60;5.20;;;;;;;16.74;74.42;101607.19;5062348;28;20197;-77
2022/06/28 07:00:23;;;;;;;7.10;5.80;;;;;;;16.72;73.95;101608.16;5060590;28;20283;-77
2022/06/28 07:02:49;;;;;;;5.40;4.67;;;;;;;16.87;73.53;101627.09;5062090;28;20226;-77
2022/06/28 07:05:17;;;;;;;5.73;5.07;;;;;;;17.04;72.92;101636.34;5062904;28;20251;-77
2022/06/28 07:07:44;;;;;;;5.87;5.40;;;;;;;17.17;72.78;101642.16;5061309;28;20366;-78
2022/06/28 07:10:10;;;;;;;5.43;4.97;;;;;;;17.22;72.11;101643.78;5066096;28;20594;-77
2022/06/28 07:12:36;;;;;;;5.63;5.13;;;;;;;17.32;72.98;101641.72;5064887;28;20228;-77
2022/06/28 07:15:03;;;;;;;5.50;4.80;;;;;;;17.31;72.94;101620.66;5062704;28;20615;-77
2022/06/28 07:17:30;;;;;;;5.63;5.13;;;;;;;17.19;71.80;101653.53;5061083;28;20548;-76
2022/06/28 07:19:56;;;;;;;10.83;5.60;;;;;;;17.18;71.23;101679.03;5062755;28;20229;-77
2022/06/28 07:22:24;;;;;;;5.27;4.77;;;;;;;17.31;71.08;101684.00;5061558;28;20202;-77
2022/06/28 07:24:51;;;;;;;4.27;3.87;;;;;;;17.43;71.89;101681.88;5062655;28;20271;-78
2022/06/28 07:27:18;;;;;;;4.53;3.50;;;;;;;17.33;68.02;101725.28;5066974;28;20212;-77
2022/06/28 07:29:44;;;;;;;3.43;3.13;;;;;;;17.53;69.28;101740.59;5065828;28;20267;-77
2022/06/28 07:32:10;;;;;;;3.23;2.70;;;;;;;17.70;68.90;101737.50;5067797;28;20738;-78
2022/06/28 07:34:37;;;;;;;3.53;3.10;;;;;;;17.69;68.11;101779.78;5064082;28;20805;-77
2022/06/28 07:37:03;;;;;;;2.57;2.30;;;;;;;17.69;66.20;101811.47;5060144;28;20700;-76
2022/06/28 07:39:31;;;;;;;3.80;2.13;;;;;;;17.60;65.35;101846.91;5061625;28;20205;-77
2022/06/28 07:41:58;;;;;;;2.20;1.20;;;;;;;17.60;62.89;101903.25;5060280;28;20205;-77
2022/06/28 07:44:24;;;;;;;1.80;1.40;;;;;;;17.80;63.59;101929.16;5065507;28;20226;-77
2022/06/28 07:46:52;;;;;;;2.77;1.17;;;;;;;17.98;64.04;101924.34;5061450;28;20224;-77
2022/06/28 07:49:18;;;;;;;0.90;0.80;;;;;;;18.08;60.51;101951.34;5063683;28;20197;-78
2022/06/28 07:54:30;;;;;;;3.83;1.03;;;;;;;18.33;59.34;102034.41;5062468;28;20687;-77
2022/06/28 07:56:57;;;;;;;1.10;1.00;;;;;;;18.43;61.02;102030.63;5060992;28;20193;-77
2022/06/28 07:59:23;;;;;;;1.93;1.70;;;;;;;18.49;62.66;101968.75;5060159;28;20243;-77
2022/06/28 08:01:50;;;;;;;2.93;1.70;;;;;;;18.47;61.45;101960.00;5061599;28;20276;-78
2022/06/28 08:04:16;;;;;;;2.27;1.80;;;;;;;18.26;62.78;101950.91;5062872;28;21321;-77
2022/06/28 08:06:43;;;;;;;3.47;1.40;;;;;;;18.05;60.76;101945.25;5061440;28;20277;-77
2022/06/28 08:09:09;;;;;;;4.07;1.40;;;;;;;18.14;59.76;101990.88;5053933;28;20214;-77
2022/06/28 08:11:39;;;;;;;1.63;0.90;;;;;;;18.23;58.30;102012.63;5053908;28;20227;-77
2022/06/28 08:14:05;;;;;;;0.80;0.80;;;;;;;18.43;57.89;102040.31;5069829;28;20675;-78
2022/06/28 08:16:32;;;;;;;1.80;1.17;;;;;;;18.62;57.31;102060.09;5073941;28;20204;-78
2022/06/28 08:18:58;;;;;;;1.50;0.93;;;;;;;18.63;56.09;102067.13;5074558;28;20204;-79
2022/06/28 08:21:24;;;;;;;2.83;0.87;;;;;;;18.77;58.08;102092.31;5075540;28;20224;-78
2022/06/28 08:23:51;;;;;;;3.30;1.17;;;;;;;18.69;56.21;102089.91;5075746;28;20250;-79
2022/06/28 08:26:17;;;;;;;1.63;0.90;;;;;;;18.86;57.17;102089.47;5074184;28;20205;-77
2022/06/28 08:28:45;;;;;;;5.73;1.10;;;;;;;19.02;56.79;102076.69;5076617;28;20209;-78
2022/06/28 08:31:11;;;;;;;1.77;0.90;;;;;;;19.16;57.82;102074.50;5076892;28;20663;-78
2022/06/28 08:33:38;;;;;;;2.47;1.00;;;;;;;19.20;55.89;102068.22;5076461;28;20204;-78
2022/06/28 08:36:04;;;;;;;2.63;0.90;;;;;;;19.32;54.96;102068.78;5075820;28;20194;-78
2022/06/28 08:38:31;;;;;;;2.53;1.10;;;;;;;19.35;55.80;102087.25;5065842;28;20671;-78
2022/06/28 08:40:58;;;;;;;3.20;1.20;;;;;;;19.32;55.77;102111.16;5065860;28;20287;-79
2022/06/28 08:43:25;;;;;;;2.37;1.00;;;;;;;19.28;55.25;102064.50;5071155;28;20219;-78
2022/06/28 08:45:53;;;;;;;2.57;1.07;;;;;;;19.06;56.03;102094.22;5074095;28;20280;-76
2022/06/28 08:48:23;;;;;;;1.50;0.90;;;;;;;19.12;55.07;102094.03;5074928;28;20214;-76
2022/06/28 08:50:52;;;;;;;1.70;1.03;;;;;;;19.01;54.63;102112.88;5075773;28;20279;-78
2022/06/28 08:53:21;;;;;;;2.27;1.17;;;;;;;19.07;54.57;102119.78;5077764;28;20209;-77
2022/06/28 08:55:49;;;;;;;1.57;1.20;;;;;;;19.22;55.09;102113.19;5077194;28;20203;-78
2022/06/28 08:58:16;;;;;;;2.33;1.07;;;;;;;19.28;54.53;102102.41;5064445;28;20206;-77
2022/06/28 09:00:43;;;;;;;7.93;1.33;;;;;;;19.51;55.11;102100.91;5066057;28;20232;-77
2022/06/28 09:03:10;;;;;;;2.50;1.30;;;;;;;19.63;54.82;102096.09;5064672;28;20199;-78
2022/06/28 09:05:37;;;;;;;2.53;1.03;;;;;;;19.72;54.73;102102.03;5066023;28;20712;-78
2022/06/28 09:08:03;;;;;;;2.97;1.37;;;;;;;19.56;53.02;102088.38;5077433;28;20559;-79
2022/06/28 09:10:30;;;;;;;4.57;1.10;;;;;;;19.42;53.97;102126.75;5077059;28;20248;-79
2022/06/28 09:13:07;;;;;;;4.23;1.10;;;;;;;19.49;53.89;102100.94;5070154;28;20201;-78
2022/06/28 09:15:48;;;;;;;2.13;1.17;;;;;;;19.48;55.30;102103.63;5068853;28;20242;-77
2022/06/28 09:18:16;;;;;;;2.57;1.33;;;;;;;19.74;57.08;102060.47;5075137;28;20210;-77
2022/06/28 09:20:44;;;;;;;1.77;1.17;;;;;;;19.93;59.59;101968.88;5076065;28;20273;-78
2022/06/28 09:23:24;;;;;;;4.77;1.47;;;;;;;20.17;55.89;101979.56;5077889;28;20294;-78
2022/06/28 09:25:52;;;;;;;8.63;2.03;;;;;;;20.32;54.72;102026.75;5077752;28;20207;-77
2022/06/28 09:28:28;;;;;;;1.83;1.30;;;;;;;20.45;53.59;102061.69;5078584;28;20205;-77
2022/06/28 09:31:14;;;;;;;2.37;1.20;;;;;;;20.49;54.67;102084.53;5077150;28;20326;-78
2022/06/28 09:33:42;;;;;;;5.23;1.10;;;;;;;20.19;52.26;102103.19;5079123;28;20295;-77
2022/06/28 09:36:12;;;;;;;1.57;1.10;;;;;;;19.79;52.37;102125.66;5076072;28;20216;-77
2022/06/28 09:38:38;;;;;;;3.27;1.40;;;;;;;19.56;53.79;102117.50;5075214;28;20293;-77
2022/06/28 09:41:05;;;;;;;3.07;1.30;;;;;;;19.56;53.47;102093.66;5075353;28;20234;-77
2022/06/28 09:43:33;;;;;;;2.17;1.20;;;;;;;19.57;52.32;102117.47;5070579;28;20208;-78
2022/06/28 09:46:03;;;;;;;2.30;1.20;;;;;;;19.81;50.29;102085.88;5077034;28;20298;-78
2022/06/28 09:48:35;;;;;;;2.17;1.13;;;;;;;19.94;50.05;102137.59;5077612;28;20246;-78
2022/06/28 09:51:04;;;;;;;1.73;1.50;;;;;;;20.15;51.86;102188.19;5075725;28;20279;-78
2022/06/28 09:53:32;;;;;;;2.37;1.23;;;;;;;20.47;50.98;102150.03;5076977;28;20212;-79
2022/06/28 09:56:02;;;;;;;2.27;1.10;;;;;;;20.71;50.77;102148.38;5078801;28;20212;-79
2022/06/28 09:58:28;;;;;;;2.10;1.17;;;;;;;20.92;50.54;102152.09;5074791;28;20212;-78
2022/06/28 10:00:55;;;;;;;1.00;1.00;;;;;;;21.06;51.13;102135.66;5074706;28;20714;-79
2022/06/28 10:03:22;;;;;;;2.23;1.23;;;;;;;21.12;50.82;102164.66;5076413;28;20226;-79
2022/06/28 10:05:48;;;;;;;2.37;1.50;;;;;;;21.01;49.11;102180.97;5080444;28;20271;-79
2022/06/28 10:08:16;;;;;;;1.20;1.10;;;;;;;21.04;51.17;102164.06;5081388;28;20234;-80
2022/06/28 10:10:45;;;;;;;1.43;0.90;;;;;;;21.17;50.86;102140.59;5077488;28;20780;-79
2022/06/28 10:16:00;;;;;;;1.70;0.90;;;;;;;21.20;52.14;102188.28;5075254;28;20206;-78
2022/06/28 10:18:28;;;;;;;2.07;1.00;;;;;;;20.81;51.02;102067.53;5075992;28;20619;-80
2022/06/28 10:20:54;;;;;;;3.40;1.53;;;;;;;20.41;48.66;102107.78;5077089;28;20290;-79
2022/06/28 10:23:24;;;;;;;1.57;1.23;;;;;;;20.58;50.27;102171.78;5074824;28;20229;-77
2022/06/28 10:26:11;;;;;;;1.40;1.30;;;;;;;20.75;47.92;102125.25;5074486;28;20293;-79
2022/06/28 10:28:40;;;;;;;1.87;1.27;;;;;;;21.00;51.27;102138.53;5075416;28;20590;-79
2022/06/28 10:31:33;;;;;;;2.90;1.27;;;;;;;21.28;50.44;102100.34;5074461;28;20666;-79
2022/06/28 10:34:02;;;;;;;1.70;1.30;;;;;;;21.50;49.95;102106.63;5076837;28;20257;-80
2022/06/28 10:36:32;;;;;;;1.57;1.30;;;;;;;21.68;48.79;102144.91;5074486;28;20277;-78
2022/06/28 10:39:15;;;;;;;2.03;1.20;;;;;;;21.79;48.34;102173.75;5075510;28;20208;-78
2022/06/28 10:41:44;;;;;;;1.13;1.03;;;;;;;21.86;47.56;102220.44;5072939;28;20307;-78
2022/06/28 10:44:12;;;;;;;1.00;0.90;;;;;;;21.93;47.32;102213.97;5072474;28;20223;-77
2022/06/28 10:46:39;;;;;;;1.67;1.10;;;;;;;21.91;46.97;102212.31;5074855;28;20551;-77
2022/06/28 10:49:13;;;;;;;1.73;1.63;;;;;;;21.85;47.01;102201.91;5078086;28;20772;-78
2022/06/28 10:52:10;;;;;;;3.03;1.10;;;;;;;21.92;47.24;102200.72;5076312;28;20232;-79
2022/06/28 10:54:40;;;;;;;2.07;1.07;;;;;;;22.00;46.76;102190.66;5072786;28;20695;-78
2022/06/28 10:57:21;;;;;;;1.57;1.03;;;;;;;22.10;46.37;102202.69;5061661;28;20745;-77
2022/06/28 10:59:50;;;;;;;2.83;1.90;;;;;;;22.19;46.28;102207.63;5053422;28;20224;-78
2022/06/28 11:02:16;;;;;;;2.10;1.17;;;;;;;22.30;45.03;102206.34;5055442;28;20213;-79
2022/06/28 11:04:44;;;;;;;1.17;0.90;;;;;;;22.18;44.19;102218.34;5055708;28;20759;-78
2022/06/28 11:07:23;;;;;;;0.93;0.93;;;;;;;22.35;44.18;102249.63;5058650;28;20590;-77
2022/06/28 11:10:07;;;;;;;1.63;1.00;;;;;;;22.39;44.56;102265.41;5073340;28;20613;-77
2022/06/28 11:12:39;;;;;;;1.17;0.90;;;;;;;22.20;41.93;102213.84;5066187;28;20203;-77
2022/06/28 11:15:07;;;;;;;1.40;1.10;;;;;;;22.48;43.08;102273.97;5073171;28;20197;-79
2022/06/28 11:17:35;;;;;;;1.77;1.13;;;;;;;22.75;40.70;102264.00;5073966;28;20622;-77
2022/06/28 11:20:04;;;;;;;0.87;0.87;;;;;;;22.72;40.23;102270.31;5073152;28;20224;-78
2022/06/28 11:22:32;;;;;;;0.83;0.83;;;;;;;23.04;41.69;102310.75;5072418;28;20277;-78
2022/06/28 11:25:01;;;;;;;2.40;0.97;;;;;;;22.95;41.13;102285.34;5073578;28;20239;-78
2022/06/28 11:27:27;;;;;;;1.23;1.10;;;;;;;22.75;39.78;102266.66;5056908;28;20205;-79
2022/06/28 11:29:56;;;;;;;1.40;1.10;;;;;;;21.82;41.06;102322.50;5053470;28;20303;-78
2022/06/28 11:32:26;;;;;;;1.57;1.00;;;;;;;22.14;43.10;102300.06;5052266;28;20621;-78
2022/06/28 11:34:58;;;;;;;1.60;1.27;;;;;;;22.73;43.91;102236.56;5071307;28;20201;-79
2022/06/28 11:37:25;;;;;;;1.53;1.10;;;;;;;23.68;42.32;102202.28;5073486;28;20264;-77